createdAt,value
2018-02-05T00:00:24.478Z,24.63
2018-02-05T00:02:51.219Z,22.80
2018-02-05T00:05:17.953Z,22.87
2018-02-05T00:07:44.751Z,24.80
2018-02-05T00:10:11.465Z,23.87
2018-02-05T00:12:38.172Z,22.67
2018-02-05T00:15:04.947Z,25.00
2018-02-05T00:17:31.674Z,23.10
2018-02-05T00:19:58.385Z,23.80
2018-02-05T00:22:25.114Z,23.90
2018-02-05T00:24:52.765Z,23.27
2018-02-05T00:27:19.524Z,23.00
2018-02-05T00:29:46.304Z,22.73
2018-02-05T00:32:13.051Z,25.43
2018-02-05T00:34:39.765Z,24.23
2018-02-05T00:37:06.505Z,24.10
2018-02-05T00:39:33.209Z,22.17
2018-02-05T00:41:59.993Z,23.03
2018-02-05T00:44:28.450Z,22.70
2018-02-05T00:46:55.165Z,23.23
2018-02-05T00:49:21.893Z,22.27
2018-02-05T00:51:48.634Z,23.83
2018-02-05T00:54:15.675Z,23.93
2018-02-05T00:56:42.376Z,23.70
2018-02-05T00:59:09.136Z,22.57
2018-02-05T01:01:36.172Z,21.57
2018-02-05T01:04:02.875Z,21.47
2018-02-05T01:06:29.620Z,22.97
2018-02-05T01:08:56.386Z,23.03
2018-02-05T01:11:23.106Z,22.17
2018-02-05T01:13:49.923Z,22.00
2018-02-05T01:16:16.665Z,21.30
2018-02-05T01:18:43.353Z,23.77
2018-02-05T01:21:10.155Z,24.60
2018-02-05T01:23:36.873Z,24.90
2018-02-05T01:26:03.592Z,22.80
2018-02-05T01:28:30.294Z,23.13
2018-02-05T01:30:56.999Z,23.30
2018-02-05T01:33:23.734Z,24.00
2018-02-05T01:35:50.435Z,21.67
2018-02-05T01:38:17.867Z,22.13
2018-02-05T01:40:44.609Z,23.43
2018-02-05T01:43:11.334Z,22.90
2018-02-05T01:45:38.038Z,23.53
2018-02-05T01:48:04.776Z,22.63
2018-02-05T01:50:31.519Z,24.83
2018-02-05T01:52:58.212Z,22.03
2018-02-05T01:55:25.010Z,22.83
2018-02-05T01:57:51.749Z,22.93
2018-02-05T02:00:18.461Z,22.57
2018-02-05T02:02:45.169Z,23.03
2018-02-05T02:05:11.885Z,23.43
2018-02-05T02:07:38.587Z,23.67
2018-02-05T02:10:05.307Z,21.83
2018-02-05T02:12:32.026Z,21.47
2018-02-05T02:14:58.773Z,23.00
2018-02-05T02:17:25.452Z,23.40
2018-02-05T02:19:52.170Z,21.10
2018-02-05T02:22:18.931Z,21.33
2018-02-05T02:24:45.648Z,20.80
2018-02-05T02:27:12.373Z,21.70
2018-02-05T02:29:39.096Z,20.67
2018-02-05T02:32:05.836Z,22.30
2018-02-05T02:34:32.572Z,20.47
2018-02-05T02:36:59.309Z,23.60
2018-02-05T02:39:26.029Z,21.40
2018-02-05T02:41:52.738Z,21.03
2018-02-05T02:44:19.471Z,22.10
2018-02-05T02:46:46.177Z,22.40
2018-02-05T02:49:12.951Z,23.73
2018-02-05T02:51:39.654Z,23.80
2018-02-05T02:54:06.355Z,22.40
2018-02-05T02:56:33.123Z,23.00
2018-02-05T02:58:59.870Z,23.23
2018-02-05T03:01:26.675Z,24.40
2018-02-05T03:03:53.368Z,25.67
2018-02-05T03:06:20.109Z,25.17
2018-02-05T03:08:46.820Z,24.47
2018-02-05T03:11:13.545Z,25.27
2018-02-05T03:13:40.251Z,25.13
2018-02-05T03:16:07.057Z,27.03
2018-02-05T03:18:33.773Z,27.30
2018-02-05T03:21:00.591Z,25.60
2018-02-05T03:23:27.293Z,28.17
2018-02-05T03:25:53.996Z,26.17
2018-02-05T03:28:20.713Z,28.10
2018-02-05T03:30:47.407Z,26.37
2018-02-05T03:33:14.183Z,26.00
2018-02-05T03:35:40.874Z,25.53
2018-02-05T03:38:07.595Z,25.50
2018-02-05T03:40:34.283Z,27.20
2018-02-05T03:43:01.049Z,25.73
2018-02-05T03:45:27.763Z,23.83
2018-02-05T03:47:54.490Z,25.17
2018-02-05T03:50:21.181Z,26.37
2018-02-05T03:52:47.879Z,24.13
2018-02-05T03:55:14.726Z,27.50
2018-02-05T03:57:42.128Z,22.83
2018-02-05T04:00:08.810Z,24.83
2018-02-05T04:02:35.534Z,25.37
2018-02-05T04:05:02.248Z,24.37
2018-02-05T04:07:28.967Z,23.00
2018-02-05T04:09:55.721Z,24.90
2018-02-05T04:12:22.439Z,25.70
2018-02-05T04:14:49.130Z,23.60
2018-02-05T04:17:15.840Z,25.17
2018-02-05T04:19:42.539Z,24.40
2018-02-05T04:22:09.248Z,26.77
2018-02-05T04:24:36.926Z,23.70
2018-02-05T04:27:03.673Z,23.33
2018-02-05T04:29:30.761Z,24.10
2018-02-05T04:31:57.490Z,26.43
2018-02-05T04:34:24.242Z,24.57
2018-02-05T04:36:50.946Z,24.17
2018-02-05T04:39:17.678Z,25.10
2018-02-05T04:41:44.380Z,25.43
2018-02-05T04:44:11.146Z,24.73
2018-02-05T04:46:37.870Z,26.43
2018-02-05T04:49:04.626Z,25.67
2018-02-05T04:51:32.160Z,24.23
2018-02-05T04:53:58.857Z,25.10
2018-02-05T04:56:25.619Z,23.77
2018-02-05T04:58:52.312Z,23.73
2018-02-05T05:01:19.310Z,23.33
2018-02-05T05:03:46.036Z,24.20
2018-02-05T05:06:12.732Z,23.50
2018-02-05T05:08:39.466Z,24.10
2018-02-05T05:11:06.166Z,25.40
2018-02-05T05:13:32.881Z,23.87
2018-02-05T05:15:59.601Z,24.40
2018-02-05T05:18:26.391Z,24.10
2018-02-05T05:20:53.116Z,24.17
2018-02-05T05:23:19.835Z,23.90
2018-02-05T05:25:46.783Z,25.33
2018-02-05T05:28:13.475Z,24.00
2018-02-05T05:30:40.183Z,23.30
2018-02-05T05:33:07.335Z,23.97
2018-02-05T05:35:34.044Z,24.90
2018-02-05T05:38:00.761Z,23.30
2018-02-05T05:40:27.456Z,22.10
2018-02-05T05:42:54.160Z,23.60
2018-02-05T05:45:20.904Z,26.47
2018-02-05T05:47:47.598Z,26.13
2018-02-05T05:50:14.350Z,23.57
2018-02-05T05:52:41.039Z,23.77
2018-02-05T05:55:07.797Z,23.57
2018-02-05T05:57:34.857Z,23.27
2018-02-05T06:00:01.527Z,23.33
2018-02-05T06:02:28.232Z,22.53
2018-02-05T06:04:54.976Z,25.00
2018-02-05T06:07:21.742Z,22.20
2018-02-05T06:09:48.457Z,22.87
2018-02-05T06:12:15.195Z,23.53
2018-02-05T06:14:41.936Z,24.87
2018-02-05T06:17:08.647Z,24.80
2018-02-05T06:19:35.423Z,23.90
2018-02-05T06:22:02.184Z,21.90
2018-02-05T06:24:29.620Z,23.77
2018-02-05T06:26:56.329Z,23.53
2018-02-05T06:29:23.060Z,22.33
2018-02-05T06:31:49.851Z,23.00
2018-02-05T06:34:16.594Z,22.70
2018-02-05T06:36:43.287Z,23.23
2018-02-05T06:39:10.006Z,23.33
2018-02-05T06:41:37.181Z,20.40
2018-02-05T06:44:03.873Z,21.83
2018-02-05T06:46:30.645Z,24.70
2018-02-05T06:48:57.556Z,22.43
2018-02-05T06:51:30.125Z,22.40
2018-02-05T06:54:02.571Z,21.43
2018-02-05T06:56:29.283Z,22.73
2018-02-05T06:58:56.069Z,26.70
2018-02-05T07:01:22.800Z,23.57
2018-02-05T07:03:50.318Z,23.80
2018-02-05T07:06:17.101Z,23.77
2018-02-05T07:08:43.832Z,22.57
2018-02-05T07:11:10.603Z,23.67
2018-02-05T07:13:37.379Z,22.80
2018-02-05T07:16:04.133Z,22.50
2018-02-05T07:18:30.865Z,22.80
2018-02-05T07:20:57.666Z,22.13
2018-02-05T07:23:24.387Z,22.60
2018-02-05T07:25:51.120Z,23.77
2018-02-05T07:28:17.872Z,23.97
2018-02-05T07:30:44.959Z,24.57
2018-02-05T07:33:11.662Z,22.50
2018-02-05T07:35:38.335Z,23.30
2018-02-05T07:38:05.049Z,22.80
2018-02-05T07:40:31.807Z,23.07
2018-02-05T07:42:58.568Z,22.57
2018-02-05T07:45:25.290Z,23.57
2018-02-05T07:47:51.967Z,22.00
2018-02-05T07:50:18.737Z,22.70
2018-02-05T07:52:45.432Z,21.80
2018-02-05T07:55:12.302Z,20.67
2018-02-05T07:57:38.986Z,20.77
2018-02-05T08:00:05.744Z,20.77
2018-02-05T08:02:32.478Z,21.53
2018-02-05T08:04:59.304Z,21.23
2018-02-05T08:07:26.168Z,22.77
2018-02-05T08:09:52.872Z,21.47
2018-02-05T08:12:19.575Z,20.30
2018-02-05T08:14:46.498Z,21.00
2018-02-05T08:17:13.210Z,21.60
2018-02-05T08:19:39.927Z,21.03
2018-02-05T08:22:06.640Z,21.13
2018-02-05T08:24:33.380Z,20.80
2018-02-05T08:27:00.378Z,21.17
2018-02-05T08:29:27.148Z,21.80
2018-02-05T08:31:53.949Z,23.37
2018-02-05T08:34:20.705Z,20.97
2018-02-05T08:36:47.402Z,20.73
2018-02-05T08:39:14.107Z,20.27
2018-02-05T08:41:40.849Z,20.30
2018-02-05T08:44:07.555Z,20.60
2018-02-05T08:46:34.913Z,19.70
2018-02-05T08:49:01.589Z,20.20
2018-02-05T08:51:28.292Z,21.90
2018-02-05T08:53:55.065Z,20.93
2018-02-05T08:56:21.768Z,20.80
2018-02-05T08:58:48.480Z,20.13
2018-02-05T09:01:15.272Z,21.60
2018-02-05T09:03:41.998Z,18.33
2018-02-05T09:06:08.789Z,20.77
2018-02-05T09:08:35.484Z,21.23
2018-02-05T09:11:02.214Z,22.60
2018-02-05T09:13:28.935Z,20.30
2018-02-05T09:15:55.661Z,20.03
2018-02-05T09:18:22.386Z,21.40
2018-02-05T09:20:49.146Z,18.97
2018-02-05T09:23:15.887Z,21.03
2018-02-05T09:25:42.611Z,19.50
2018-02-05T09:28:09.314Z,21.37
2018-02-05T09:30:36.098Z,20.60
2018-02-05T09:33:03.288Z,20.40
2018-02-05T09:35:29.991Z,20.13
2018-02-05T09:37:56.715Z,20.17
2018-02-05T09:40:23.466Z,19.70
2018-02-05T09:42:50.178Z,20.47
2018-02-05T09:45:16.875Z,22.40
2018-02-05T09:47:43.602Z,20.73
2018-02-05T09:50:10.326Z,19.63
2018-02-05T09:52:37.073Z,19.80
2018-02-05T09:55:03.771Z,20.77
2018-02-05T09:57:30.514Z,20.90
2018-02-05T09:59:57.221Z,24.00
2018-02-05T10:02:23.916Z,19.73
2018-02-05T10:04:50.727Z,21.10
2018-02-05T10:07:17.446Z,17.97
2018-02-05T10:09:44.156Z,20.67
2018-02-05T10:12:10.913Z,19.27
2018-02-05T10:14:37.596Z,21.27
2018-02-05T10:17:04.298Z,19.17
2018-02-05T10:19:31.062Z,19.80
2018-02-05T10:21:58.563Z,19.47
2018-02-05T10:24:25.285Z,19.83
2018-02-05T10:26:52.001Z,19.90
2018-02-05T10:29:18.704Z,19.63
2018-02-05T10:31:45.436Z,20.70
2018-02-05T10:34:12.182Z,20.33
2018-02-05T10:36:38.861Z,19.40
2018-02-05T10:39:05.633Z,20.90
2018-02-05T10:41:32.356Z,21.43
2018-02-05T10:43:59.071Z,18.23
2018-02-05T10:46:25.888Z,18.60
2018-02-05T10:48:52.601Z,19.10
2018-02-05T10:51:19.330Z,19.07
2018-02-05T10:53:46.055Z,20.30
2018-02-05T10:56:12.765Z,19.33
2018-02-05T10:58:39.463Z,19.00
2018-02-05T11:01:06.239Z,20.20
2018-02-05T11:03:32.992Z,19.27
2018-02-05T11:05:59.682Z,18.27
2018-02-05T11:08:26.365Z,19.47
2018-02-05T11:10:53.073Z,19.07
2018-02-05T11:13:19.815Z,19.17
2018-02-05T11:15:46.590Z,18.73
2018-02-05T11:18:13.365Z,18.23
2018-02-05T11:20:40.099Z,19.77
2018-02-05T11:23:06.860Z,19.40
2018-02-05T11:25:33.561Z,18.43
2018-02-05T11:28:00.263Z,20.00
2018-02-05T11:30:26.976Z,18.97
2018-02-05T11:32:54.492Z,19.00
2018-02-05T11:35:21.162Z,18.23
2018-02-05T11:37:47.926Z,19.77
2018-02-05T11:40:14.615Z,16.23
2018-02-05T11:42:41.831Z,19.43
2018-02-05T11:45:08.533Z,17.30
2018-02-05T11:47:35.267Z,17.27
2018-02-05T11:50:02.038Z,18.43
2018-02-05T11:52:28.750Z,16.33
2018-02-05T11:54:55.543Z,18.23
2018-02-05T11:57:22.314Z,16.80
2018-02-05T11:59:49.006Z,17.23
2018-02-05T12:02:15.742Z,17.00
2018-02-05T12:04:42.451Z,18.03
2018-02-05T12:07:09.133Z,19.27
2018-02-05T12:09:35.914Z,18.23
2018-02-05T12:12:02.643Z,17.40
2018-02-05T12:14:29.596Z,18.83
2018-02-05T12:16:56.314Z,18.63
2018-02-05T12:19:23.093Z,18.20
2018-02-05T12:21:49.841Z,18.57
2018-02-05T12:24:16.751Z,18.67
2018-02-05T12:26:43.483Z,18.73
2018-02-05T12:29:10.225Z,17.90
2018-02-05T12:31:37.003Z,17.93
2018-02-05T12:34:03.791Z,18.33
2018-02-05T12:36:30.582Z,20.50
2018-02-05T12:38:57.298Z,18.53
2018-02-05T12:41:24.128Z,17.50
2018-02-05T12:43:50.834Z,17.17
2018-02-05T12:46:17.572Z,17.80
2018-02-05T12:48:44.844Z,18.53
2018-02-05T12:51:11.596Z,17.80
2018-02-05T12:53:38.304Z,18.63
2018-02-05T12:56:05.727Z,16.23
2018-02-05T12:58:35.190Z,18.40
2018-02-05T13:01:07.742Z,17.87
2018-02-05T13:03:45.650Z,18.00
2018-02-05T13:06:18.044Z,17.90
2018-02-05T13:08:44.851Z,19.00
2018-02-05T13:11:11.654Z,17.00
2018-02-05T13:13:38.366Z,17.53
2018-02-05T13:16:05.950Z,17.80
2018-02-05T13:18:32.908Z,16.80
2018-02-05T13:20:59.898Z,16.23
2018-02-05T13:23:26.651Z,16.17
2018-02-05T13:25:53.428Z,17.10
2018-02-05T13:28:20.252Z,17.43
2018-02-05T13:30:46.930Z,16.60
2018-02-05T13:33:13.635Z,16.60
2018-02-05T13:35:40.350Z,16.80
2018-02-05T13:38:07.216Z,16.57
2018-02-05T13:40:33.986Z,17.83
2018-02-05T13:43:00.680Z,17.40
2018-02-05T13:45:27.394Z,16.67
2018-02-05T13:47:54.095Z,16.50
2018-02-05T13:50:21.089Z,15.13
2018-02-05T13:52:47.844Z,16.77
2018-02-05T13:55:14.524Z,16.40
2018-02-05T13:57:41.909Z,16.67
2018-02-05T14:00:08.614Z,15.60
2018-02-05T14:02:35.466Z,16.80
2018-02-05T14:05:02.273Z,15.97
2018-02-05T14:07:28.957Z,17.33
2018-02-05T14:09:55.701Z,17.20
2018-02-05T14:12:22.376Z,15.00
2018-02-05T14:14:49.094Z,16.13
2018-02-05T14:17:16.759Z,16.10
2018-02-05T14:19:43.472Z,15.70
2018-02-05T14:22:10.205Z,16.90
2018-02-05T14:24:36.897Z,16.20
2018-02-05T14:27:03.651Z,16.73
2018-02-05T14:29:31.438Z,17.30
2018-02-05T14:31:58.254Z,15.03
2018-02-05T14:34:24.977Z,16.30
2018-02-05T14:36:51.724Z,15.63
2018-02-05T14:39:18.459Z,15.23
2018-02-05T14:41:45.169Z,16.10
2018-02-05T14:44:11.908Z,16.97
2018-02-05T14:46:38.620Z,16.83
2018-02-05T14:49:05.298Z,14.97
2018-02-05T14:51:32.103Z,14.57
2018-02-05T14:53:58.835Z,15.87
2018-02-05T14:56:25.552Z,16.67
2018-02-05T14:58:52.357Z,16.67
2018-02-05T15:01:19.108Z,15.67
2018-02-05T15:03:45.948Z,15.40
2018-02-05T15:06:12.722Z,15.37
2018-02-05T15:08:39.474Z,14.53
2018-02-05T15:11:06.205Z,14.30
2018-02-05T15:13:32.942Z,14.30
2018-02-05T15:15:59.673Z,15.70
2018-02-05T15:18:27.385Z,15.87
2018-02-05T15:20:54.138Z,15.37
2018-02-05T15:23:20.858Z,14.73
2018-02-05T15:25:47.722Z,15.10
2018-02-05T15:28:14.450Z,13.97
2018-02-05T15:30:41.240Z,15.77
2018-02-05T15:33:07.931Z,14.47
2018-02-05T15:35:34.710Z,14.60
2018-02-05T15:38:01.497Z,14.47
2018-02-05T15:40:29.652Z,14.30
2018-02-05T15:42:56.514Z,15.57
2018-02-05T15:45:23.316Z,15.83
2018-02-05T15:47:50.064Z,14.50
2018-02-05T15:50:16.948Z,13.20
2018-02-05T15:52:43.666Z,13.10
2018-02-05T15:55:10.389Z,14.43
2018-02-05T15:57:37.069Z,14.80
2018-02-05T16:00:03.782Z,13.40
2018-02-05T16:02:30.561Z,13.60
2018-02-05T16:04:57.261Z,14.97
2018-02-05T16:07:24.655Z,13.40
2018-02-05T16:09:51.348Z,12.60
2018-02-05T16:12:18.048Z,14.80
2018-02-05T16:14:44.774Z,13.90
2018-02-05T16:17:11.464Z,15.00
2018-02-05T16:19:38.186Z,13.50
2018-02-05T16:22:04.935Z,12.37
2018-02-05T16:24:31.887Z,12.63
2018-02-05T16:26:58.603Z,13.20
2018-02-05T16:29:25.363Z,13.03
2018-02-05T16:31:52.071Z,13.07
2018-02-05T16:34:18.769Z,13.00
2018-02-05T16:36:45.528Z,12.70
2018-02-05T16:39:12.226Z,12.10
2018-02-05T16:41:38.968Z,14.50
2018-02-05T16:44:05.680Z,12.33
2018-02-05T16:46:32.458Z,12.37
2018-02-05T16:48:59.211Z,13.10
2018-02-05T16:51:26.058Z,12.77
2018-02-05T16:53:52.770Z,12.67
2018-02-05T16:56:19.497Z,13.60
2018-02-05T16:58:46.283Z,12.33
2018-02-05T17:01:12.977Z,12.37
2018-02-05T17:03:39.702Z,13.13
2018-02-05T17:06:06.413Z,13.53
2018-02-05T17:08:33.119Z,13.30
2018-02-05T17:11:00.116Z,13.30
2018-02-05T17:13:26.902Z,12.60
2018-02-05T17:15:53.669Z,15.27
2018-02-05T17:18:20.384Z,11.70
2018-02-05T17:20:47.127Z,13.13
2018-02-05T17:23:13.941Z,12.97
2018-02-05T17:25:40.654Z,13.43
2018-02-05T17:28:07.452Z,12.83
2018-02-05T17:30:34.294Z,12.77
2018-02-05T17:33:01.034Z,12.30
2018-02-05T17:35:27.751Z,13.00
2018-02-05T17:37:54.433Z,14.53
2018-02-05T17:40:21.167Z,13.10
2018-02-05T17:42:47.906Z,12.27
2018-02-05T17:45:14.598Z,13.50
2018-02-05T17:47:41.411Z,15.37
2018-02-05T17:50:08.198Z,14.10
2018-02-05T17:52:34.873Z,13.77
2018-02-05T17:55:01.582Z,14.97
2018-02-05T17:57:28.344Z,12.53
2018-02-05T17:59:55.074Z,12.27
2018-02-05T18:02:21.764Z,13.27
2018-02-05T18:04:48.534Z,13.43
2018-02-05T18:07:15.304Z,14.60
2018-02-05T18:09:42.016Z,14.63
2018-02-05T18:12:08.782Z,12.73
2018-02-05T18:14:35.979Z,13.07
2018-02-05T18:17:02.896Z,14.47
2018-02-05T18:19:30.196Z,13.10
2018-02-05T18:21:56.933Z,13.47
2018-02-05T18:24:24.569Z,14.40
2018-02-05T18:26:51.253Z,12.97
2018-02-05T18:29:18.068Z,13.33
2018-02-05T18:31:44.853Z,13.87
2018-02-05T18:34:11.614Z,15.30
2018-02-05T18:36:38.324Z,13.10
2018-02-05T18:39:05.053Z,14.20
2018-02-05T18:41:31.769Z,14.20
2018-02-05T18:43:58.501Z,13.37
2018-02-05T18:46:25.980Z,13.00
2018-02-05T18:48:52.718Z,14.43
2018-02-05T18:51:19.395Z,13.17
2018-02-05T18:53:46.147Z,15.17
2018-02-05T18:56:12.837Z,13.47
2018-02-05T18:58:39.617Z,13.77
2018-02-05T19:01:06.317Z,13.40
2018-02-05T19:03:33.065Z,13.20
2018-02-05T19:06:00.640Z,13.73
2018-02-05T19:08:27.430Z,14.30
2018-02-05T19:10:54.126Z,13.13
2018-02-05T19:13:20.856Z,13.50
2018-02-05T19:15:47.558Z,14.13
2018-02-05T19:18:14.226Z,14.30
2018-02-05T19:20:40.987Z,13.30
2018-02-05T19:23:07.776Z,13.27
2018-02-05T19:25:34.565Z,14.90
2018-02-05T19:28:01.281Z,13.70
2018-02-05T19:30:27.966Z,12.80
2018-02-05T19:32:54.761Z,14.13
2018-02-05T19:35:21.812Z,13.00
2018-02-05T19:37:48.531Z,14.00
2018-02-05T19:40:15.269Z,14.23
2018-02-05T19:42:42.034Z,13.83
2018-02-05T19:45:08.766Z,13.43
2018-02-05T19:47:35.465Z,13.00
2018-02-05T19:50:02.207Z,12.60
2018-02-05T19:52:28.984Z,12.30
2018-02-05T19:54:55.722Z,13.80
2018-02-05T19:59:55.456Z,12.53
2018-02-05T20:02:22.205Z,14.13
2018-02-05T20:04:48.965Z,12.37
2018-02-05T20:07:15.736Z,13.17
2018-02-05T20:09:42.444Z,14.20
2018-02-05T20:12:09.149Z,14.37
2018-02-05T20:14:36.237Z,13.43
2018-02-05T20:17:02.973Z,14.47
2018-02-05T20:19:30.726Z,13.43
2018-02-05T20:21:58.052Z,14.03
2018-02-05T20:24:24.749Z,13.60
2018-02-05T20:26:51.453Z,13.10
2018-02-05T20:29:18.177Z,13.40
2018-02-05T20:31:44.901Z,13.27
2018-02-05T20:34:11.627Z,14.37
2018-02-05T20:36:38.345Z,12.87
2018-02-05T20:39:05.137Z,12.80
2018-02-05T20:41:31.827Z,13.63
2018-02-05T20:43:58.824Z,13.63
2018-02-05T20:46:25.579Z,13.30
2018-02-05T20:48:52.294Z,13.27
2018-02-05T20:51:19.186Z,14.07
2018-02-05T20:53:45.857Z,13.60
2018-02-05T20:56:12.593Z,13.90
2018-02-05T20:58:39.387Z,13.97
2018-02-05T21:01:06.126Z,12.30
2018-02-05T21:03:32.847Z,14.00
2018-02-05T21:05:59.993Z,13.03
2018-02-05T21:08:26.746Z,14.47
2018-02-05T21:10:53.593Z,13.30
2018-02-05T21:13:20.392Z,13.87
2018-02-05T21:15:47.161Z,13.53
2018-02-05T21:18:14.104Z,13.70
2018-02-05T21:20:40.876Z,13.53
2018-02-05T21:23:07.629Z,13.77
2018-02-05T21:25:34.438Z,13.90
2018-02-05T21:28:01.208Z,14.50
2018-02-05T21:30:28.208Z,13.00
2018-02-05T21:32:54.975Z,12.50
2018-02-05T21:35:21.796Z,13.60
2018-02-05T21:37:48.553Z,12.90
2018-02-05T21:40:15.270Z,13.17
2018-02-05T21:42:41.998Z,12.47
2018-02-05T21:45:08.773Z,12.60
2018-02-05T21:47:35.563Z,14.57
2018-02-05T21:50:02.466Z,13.00
2018-02-05T21:52:29.297Z,12.70
2018-02-05T21:54:56.128Z,12.63
2018-02-05T21:57:22.910Z,13.80
2018-02-05T21:59:49.625Z,14.03
2018-02-05T22:02:16.346Z,12.93
2018-02-05T22:04:43.137Z,12.83
2018-02-05T22:07:09.966Z,14.00
2018-02-05T22:09:36.807Z,12.80
2018-02-05T22:12:03.525Z,14.07
2018-02-05T22:14:30.236Z,14.57
2018-02-05T22:16:57.333Z,14.30
2018-02-05T22:19:24.254Z,13.93
2018-02-05T22:21:51.057Z,13.70
2018-02-05T22:24:17.813Z,13.77
2018-02-05T22:26:44.565Z,13.13
2018-02-05T22:29:11.261Z,13.50
2018-02-05T22:31:38.365Z,13.70
2018-02-05T22:34:05.450Z,13.47
2018-02-05T22:36:32.141Z,13.63
2018-02-05T22:38:58.939Z,12.80
2018-02-05T22:41:25.703Z,12.80
2018-02-05T22:43:52.415Z,14.13
2018-02-05T22:46:19.943Z,12.80
2018-02-05T22:48:46.645Z,13.63
2018-02-05T22:51:13.410Z,13.20
2018-02-05T22:53:40.153Z,15.60
2018-02-05T22:56:06.986Z,13.97
2018-02-05T22:58:33.940Z,14.23
2018-02-05T23:01:00.717Z,14.30
2018-02-05T23:03:27.471Z,13.90
2018-02-05T23:05:54.647Z,12.70
2018-02-05T23:08:21.392Z,14.83
2018-02-05T23:10:48.259Z,14.80
2018-02-05T23:13:15.194Z,13.77
2018-02-05T23:15:41.950Z,14.73
2018-02-05T23:18:08.738Z,13.87
2018-02-05T23:20:35.724Z,15.00
2018-02-05T23:23:03.137Z,14.00
2018-02-05T23:25:29.912Z,14.33
2018-02-05T23:27:56.750Z,14.50
2018-02-05T23:30:23.711Z,13.03
2018-02-05T23:32:50.464Z,14.87
2018-02-05T23:35:17.349Z,14.30
2018-02-05T23:37:44.277Z,15.17
2018-02-05T23:40:11.065Z,14.53
2018-02-05T23:42:38.234Z,13.90
2018-02-05T23:45:05.180Z,14.17
2018-02-05T23:47:32.103Z,14.83
2018-02-05T23:49:58.911Z,14.87
2018-02-05T23:52:25.712Z,14.20
2018-02-05T23:54:52.402Z,14.33
2018-02-05T23:57:19.189Z,15.57
2018-02-05T23:59:45.915Z,13.77
